Jordan Harbour

*Note: All times are displayed in the local standard time of the station location.
**Rain - Equipment is designed to accurately record liquid precipitation; under conditions when precipitation is not in liquid form, the data displayed may not properly reflect rainfall values.

Date Max Temp
(°C)
Min Temp
(°C)
Avg Temp
(°C)
Rain (mm) Avg RH (%)
Mon, Apr 23, 2018 9.4 0.4 5.6 0.0 75.7
Sun, Apr 22, 2018 15.2 -1.2 7.0 0.0 57.5
Sat, Apr 21, 2018 14.3 -2.1 6.2 0.0 58.9
Fri, Apr 20, 2018 8.4 -0.1 3.3 0.0 63.4
Thu, Apr 19, 2018 4.6 1.3 2.7 0.0 69.6
Wed, Apr 18, 2018 4.3 1.0 2.6 0.0 76.3
Tue, Apr 17, 2018 2.0 -0.8 1.0 0.2 74.5
DateTime Avg Temp (°C) Rain (mm) RH (%)
Tue, Apr 24, 2018 18:00 13.2 0.4 81.5
Tue, Apr 24, 2018 17:00 14.6 0.0 67.5
Tue, Apr 24, 2018 16:00 12.5 0.0 64.5
Tue, Apr 24, 2018 15:00 16.1 0.0 54.3
Tue, Apr 24, 2018 14:00 18.0 0.0 47.8
Tue, Apr 24, 2018 13:00 17.2 0.0 48.3
Tue, Apr 24, 2018 12:00 16.3 0.0 50.8
Tue, Apr 24, 2018 11:00 14.3 0.0 61.0
Tue, Apr 24, 2018 10:00 13.8 0.0 65.3
Tue, Apr 24, 2018 09:00 13.8 0.0 64.0
Tue, Apr 24, 2018 08:00 13.5 0.0 60.3
Tue, Apr 24, 2018 07:00 11.4 0.0 68.3
Tue, Apr 24, 2018 06:00 9.7 0.0 73.5
Tue, Apr 24, 2018 05:00 6.0 0.0 82.0
Tue, Apr 24, 2018 04:00 4.1 0.0 88.0
Tue, Apr 24, 2018 03:00 4.3 0.0 87.3
Tue, Apr 24, 2018 02:00 4.6 0.0 86.8
Tue, Apr 24, 2018 01:00 5.0 0.0 80.0
Tue, Apr 24, 2018 00:00 5.3 0.0 75.8
Mon, Apr 23, 2018 23:00 5.3 0.0 76.8
Mon, Apr 23, 2018 22:00 5.4 0.0 76.5
Mon, Apr 23, 2018 21:00 5.8 0.0 76.3
Mon, Apr 23, 2018 20:00 7.2 0.0 70.3
Mon, Apr 23, 2018 19:00 8.0 0.0 66.3
Mon, Apr 23, 2018 18:00 8.8 0.0 63.5
Mon, Apr 23, 2018 17:00 9.3 0.0 61.5
Mon, Apr 23, 2018 16:00 9.1 0.0 63.8
Mon, Apr 23, 2018 15:00 8.9 0.0 67.8
Mon, Apr 23, 2018 14:00 8.0 0.0 70.3
Mon, Apr 23, 2018 13:00 8.0 0.0 71.0
Mon, Apr 23, 2018 12:00 8.2 0.0 68.3
Mon, Apr 23, 2018 11:00 7.6 0.0 72.8
Mon, Apr 23, 2018 10:00 7.6 0.0 68.8
Mon, Apr 23, 2018 09:00 6.2 0.0 77.0
Mon, Apr 23, 2018 08:00 3.1 0.0 82.5
Mon, Apr 23, 2018 07:00 1.2 0.0 87.5
Mon, Apr 23, 2018 06:00 1.2 0.0 86.5
Mon, Apr 23, 2018 05:00 0.9 0.0 92.0
Mon, Apr 23, 2018 04:00 0.6 0.0 89.0
Mon, Apr 23, 2018 03:00 1.2 0.0 88.0
Mon, Apr 23, 2018 02:00 2.8 0.0 86.8
Mon, Apr 23, 2018 01:00 4.1 0.0 77.8
Mon, Apr 23, 2018 00:00 5.1 0.0 67.3
Sun, Apr 22, 2018 23:00 5.4 0.0 68.0
Sun, Apr 22, 2018 22:00 7.4 0.0 64.5
Sun, Apr 22, 2018 21:00 9.8 0.0 54.8
Sun, Apr 22, 2018 20:00 13.1 0.0 29.5
Sun, Apr 22, 2018 19:00 14.6 0.0 29.3


asterix Register now to access more data! asterix